createdAt,value
2019-04-01T00:00:58.534Z,16.90
2019-04-01T00:03:27.671Z,17.00
2019-04-01T00:05:56.791Z,17.00
2019-04-01T00:08:25.931Z,16.90
2019-04-01T00:10:54.986Z,17.00
2019-04-01T00:13:24.064Z,17.00
2019-04-01T00:15:53.093Z,16.90
2019-04-01T00:18:22.148Z,16.90
2019-04-01T00:20:51.286Z,16.90
2019-04-01T00:23:20.278Z,17.00
2019-04-01T00:25:49.418Z,16.90
2019-04-01T00:28:18.478Z,16.90
2019-04-01T00:30:47.523Z,16.90
2019-04-01T00:33:16.652Z,16.90
2019-04-01T00:35:47.959Z,16.90
2019-04-01T00:38:17.168Z,16.90
2019-04-01T00:40:46.303Z,16.90
2019-04-01T00:43:19.964Z,16.90
2019-04-01T00:45:49.422Z,16.90
2019-04-01T00:48:18.435Z,16.90
2019-04-01T00:50:47.895Z,16.90
2019-04-01T00:53:18.115Z,16.80
2019-04-01T00:55:47.396Z,16.80
2019-04-01T00:58:16.384Z,16.90
2019-04-01T01:00:45.591Z,16.90
2019-04-01T01:03:14.837Z,16.80
2019-04-01T01:05:43.825Z,16.80
2019-04-01T01:08:13.022Z,16.90
2019-04-01T01:10:42.367Z,16.80
2019-04-01T01:13:11.376Z,16.80
2019-04-01T01:15:40.460Z,16.90
2019-04-01T01:18:09.600Z,16.80
2019-04-01T01:20:38.647Z,16.80
2019-04-01T01:23:07.788Z,16.80
2019-04-01T01:25:36.932Z,16.80
2019-04-01T01:28:05.919Z,16.80
2019-04-01T01:30:35.057Z,16.80
2019-04-01T01:33:04.062Z,16.80
2019-04-01T01:35:33.972Z,16.80
2019-04-01T01:38:03.020Z,16.80
2019-04-01T01:40:32.015Z,16.80
2019-04-01T01:43:01.045Z,16.80
2019-04-01T01:45:30.169Z,16.80
2019-04-01T01:47:59.165Z,16.80
2019-04-01T01:50:28.245Z,16.70
2019-04-01T01:52:57.671Z,16.80
2019-04-01T01:55:26.725Z,16.80
2019-04-01T01:57:55.790Z,16.80
2019-04-01T02:00:26.177Z,16.70
2019-04-01T02:02:55.407Z,16.80
2019-04-01T02:05:24.391Z,16.80
2019-04-01T02:07:53.553Z,16.80
2019-04-01T02:10:22.586Z,16.80
2019-04-01T02:12:51.932Z,16.70
2019-04-01T02:15:21.136Z,16.70
2019-04-01T02:17:50.128Z,16.70
2019-04-01T02:20:19.137Z,16.70
2019-04-01T02:22:48.369Z,16.70
2019-04-01T02:25:17.522Z,16.70
2019-04-01T02:27:46.583Z,16.70
2019-04-01T02:30:15.665Z,16.70
2019-04-01T02:32:45.068Z,16.70
2019-04-01T02:35:14.315Z,16.70
2019-04-01T02:37:43.520Z,16.60
2019-04-01T02:40:12.603Z,16.70
2019-04-01T02:42:41.734Z,16.60
2019-04-01T02:45:10.912Z,16.70
2019-04-01T02:47:40.121Z,16.60
2019-04-01T02:50:09.353Z,16.60
2019-04-01T02:52:38.409Z,16.60
2019-04-01T02:55:07.679Z,16.60
2019-04-01T02:57:36.934Z,16.70
2019-04-01T03:00:06.405Z,16.60
2019-04-01T03:02:35.482Z,16.60
2019-04-01T03:05:04.950Z,16.60
2019-04-01T03:07:34.146Z,16.60
2019-04-01T03:10:03.586Z,16.60
2019-04-01T03:12:32.620Z,16.70
2019-04-01T03:15:01.794Z,16.60
2019-04-01T03:17:30.986Z,16.60
2019-04-01T03:20:00.748Z,16.70
2019-04-01T03:22:29.893Z,16.70
2019-04-01T03:24:59.403Z,16.60
2019-04-01T03:27:29.306Z,16.60
2019-04-01T03:29:58.845Z,16.60
2019-04-01T03:32:28.591Z,16.60
2019-04-01T03:34:58.163Z,16.60
2019-04-01T03:37:27.380Z,16.60
2019-04-01T03:39:56.365Z,16.60
2019-04-01T03:42:27.606Z,16.60
2019-04-01T03:44:56.902Z,16.60
2019-04-01T03:47:26.264Z,16.60
2019-04-01T03:49:55.312Z,16.60
2019-04-01T03:52:24.341Z,16.60
2019-04-01T03:54:53.622Z,16.60
2019-04-01T03:57:22.777Z,16.60
2019-04-01T03:59:51.987Z,16.60
2019-04-01T04:02:21.126Z,16.60
2019-04-01T04:04:50.673Z,16.60
2019-04-01T04:07:20.148Z,16.50
2019-04-01T04:09:49.373Z,16.50
2019-04-01T04:12:18.626Z,16.50
2019-04-01T04:14:51.161Z,16.50
2019-04-01T04:17:18.677Z,16.50
2019-04-01T04:19:47.794Z,16.50
2019-04-01T04:22:17.119Z,16.50
2019-04-01T04:24:46.242Z,16.50
2019-04-01T04:27:15.361Z,16.50
2019-04-01T04:29:44.510Z,16.50
2019-04-01T04:32:13.920Z,16.50
2019-04-01T04:34:43.186Z,16.40
2019-04-01T04:37:12.402Z,16.50
2019-04-01T04:39:41.537Z,16.50
2019-04-01T04:42:10.616Z,16.50
2019-04-01T04:44:39.601Z,16.50
2019-04-01T04:47:08.741Z,16.60
2019-04-01T04:49:38.037Z,16.50
2019-04-01T04:52:07.172Z,16.50
2019-04-01T04:54:36.442Z,16.40
2019-04-01T04:57:05.620Z,16.40
2019-04-01T04:59:34.888Z,16.50
2019-04-01T05:02:03.975Z,16.50
2019-04-01T05:04:33.280Z,16.50
2019-04-01T05:07:02.444Z,16.50
2019-04-01T05:09:31.645Z,16.40
2019-04-01T05:12:02.682Z,16.40
2019-04-01T05:14:31.745Z,16.50
2019-04-01T05:17:00.900Z,16.40
2019-04-01T05:19:30.043Z,16.50
2019-04-01T05:21:59.299Z,16.40
2019-04-01T05:24:28.437Z,16.40
2019-04-01T05:26:58.160Z,16.40
2019-04-01T05:29:27.336Z,16.40
2019-04-01T05:31:56.480Z,16.40
2019-04-01T05:34:25.821Z,16.50
2019-04-01T05:36:55.060Z,16.40
2019-04-01T05:39:24.409Z,16.40
2019-04-01T05:41:53.419Z,16.50
2019-04-01T05:44:22.842Z,16.40
2019-04-01T05:46:52.424Z,16.40
2019-04-01T05:49:21.478Z,16.40
2019-04-01T05:51:50.637Z,16.40
2019-04-01T05:54:19.696Z,16.40
2019-04-01T05:56:48.853Z,16.50
2019-04-01T05:59:18.057Z,16.50
2019-04-01T06:01:47.998Z,16.50
2019-04-01T06:04:17.053Z,16.50
2019-04-01T06:06:48.848Z,16.50
2019-04-01T06:09:17.159Z,16.60
2019-04-01T06:11:46.755Z,16.60
2019-04-01T06:14:15.977Z,16.60
2019-04-01T06:16:45.171Z,16.70
2019-04-01T06:19:14.447Z,16.60
2019-04-01T06:21:43.513Z,16.70
2019-04-01T06:24:12.664Z,16.70
2019-04-01T06:26:41.819Z,16.80
2019-04-01T06:29:10.962Z,16.80
2019-04-01T06:31:40.110Z,16.80
2019-04-01T06:34:09.495Z,16.80
2019-04-01T06:36:38.952Z,16.90
2019-04-01T06:39:08.331Z,17.00
2019-04-01T06:41:37.389Z,17.00
2019-04-01T06:44:06.456Z,17.00
2019-04-01T06:46:35.420Z,17.10
2019-04-01T06:49:04.664Z,17.10
2019-04-01T06:51:33.649Z,17.20
2019-04-01T06:54:02.789Z,17.20
2019-04-01T06:56:31.951Z,17.20
2019-04-01T06:59:00.956Z,17.30
2019-04-01T07:01:30.101Z,17.30
2019-04-01T07:03:59.170Z,17.30
2019-04-01T07:06:28.230Z,17.40
2019-04-01T07:08:57.284Z,17.40
2019-04-01T07:11:29.234Z,17.50
2019-04-01T07:13:58.289Z,17.60
2019-04-01T07:16:27.345Z,17.60
2019-04-01T07:18:56.699Z,17.60
2019-04-01T07:21:25.831Z,17.60
2019-04-01T07:23:54.972Z,17.60
2019-04-01T07:26:23.989Z,17.70
2019-04-01T07:28:53.476Z,17.70
2019-04-01T07:31:22.532Z,17.70
2019-04-01T07:33:51.673Z,17.60
2019-04-01T07:36:20.726Z,17.70
2019-04-01T07:38:49.804Z,17.70
2019-04-01T07:41:19.039Z,17.80
2019-04-01T07:43:48.094Z,18.00
2019-04-01T07:46:17.143Z,18.00
2019-04-01T07:48:46.492Z,18.10
2019-04-01T07:51:15.660Z,18.10
2019-04-01T07:53:45.297Z,18.10
2019-04-01T07:56:14.436Z,18.20
2019-04-01T07:58:44.082Z,18.20
2019-04-01T08:01:13.362Z,18.30
2019-04-01T08:03:42.457Z,18.20
2019-04-01T08:06:11.518Z,18.20
2019-04-01T08:08:40.819Z,18.30
2019-04-01T08:11:09.808Z,18.40
2019-04-01T08:13:38.879Z,18.30
2019-04-01T08:16:08.288Z,18.40
2019-04-01T08:18:37.416Z,18.40
2019-04-01T08:21:06.650Z,18.40
2019-04-01T08:23:35.986Z,18.40
2019-04-01T08:26:05.398Z,18.50
2019-04-01T08:28:34.631Z,18.50
2019-04-01T08:31:03.742Z,18.50
2019-04-01T08:33:32.752Z,18.50
2019-04-01T08:36:01.849Z,18.60
2019-04-01T08:38:30.897Z,18.60
2019-04-01T08:41:00.073Z,18.60
2019-04-01T08:43:29.293Z,18.60
2019-04-01T08:45:58.290Z,18.60
2019-04-01T08:48:27.351Z,18.70
2019-04-01T08:50:56.403Z,18.60
2019-04-01T08:53:31.179Z,18.70
2019-04-01T08:56:01.229Z,18.70
2019-04-01T08:58:30.495Z,18.70
2019-04-01T09:00:59.484Z,18.80
2019-04-01T09:03:28.878Z,18.80
2019-04-01T09:05:58.044Z,18.80
2019-04-01T09:08:27.726Z,18.90
2019-04-01T09:10:56.779Z,18.80
2019-04-01T09:13:26.155Z,18.80
2019-04-01T09:15:55.478Z,18.80
2019-04-01T09:18:24.572Z,18.90
2019-04-01T09:20:53.627Z,18.90
2019-04-01T09:23:22.712Z,18.90
2019-04-01T09:25:51.860Z,18.90
2019-04-01T09:28:21.152Z,18.90
2019-04-01T09:30:50.288Z,18.80
2019-04-01T09:33:19.396Z,18.90
2019-04-01T09:35:48.526Z,18.90
2019-04-01T09:38:17.694Z,18.90
2019-04-01T09:40:46.891Z,18.80
2019-04-01T09:43:16.119Z,18.90
2019-04-01T09:45:45.123Z,18.90
2019-04-01T09:48:14.244Z,18.90
2019-04-01T09:50:43.301Z,18.90
2019-04-01T09:53:12.421Z,18.90
2019-04-01T09:55:41.489Z,18.90
2019-04-01T09:58:10.573Z,18.80
2019-04-01T10:00:39.574Z,18.80
2019-04-01T10:03:08.642Z,18.90
2019-04-01T10:05:37.947Z,18.90
2019-04-01T10:08:07.031Z,18.80
2019-04-01T10:10:36.204Z,18.80
2019-04-01T10:13:05.277Z,18.80
2019-04-01T10:15:34.452Z,18.80
2019-04-01T10:18:03.660Z,18.80
2019-04-01T10:20:32.808Z,18.90
2019-04-01T10:23:01.920Z,18.80
2019-04-01T10:25:31.139Z,18.80
2019-04-01T10:28:00.338Z,18.80
2019-04-01T10:30:30.050Z,18.80
2019-04-01T10:33:02.097Z,18.80
2019-04-01T10:35:29.972Z,18.80
2019-04-01T10:37:59.120Z,18.80
2019-04-01T10:40:28.216Z,18.80
2019-04-01T10:42:57.384Z,18.80
2019-04-01T10:45:26.395Z,18.80
2019-04-01T10:47:56.276Z,18.80
2019-04-01T10:50:25.632Z,18.90
2019-04-01T10:52:54.703Z,18.80
2019-04-01T10:55:23.953Z,18.80
2019-04-01T10:57:54.154Z,18.80
2019-04-01T11:00:23.979Z,18.80
2019-04-01T11:02:53.227Z,18.80
2019-04-01T11:05:22.303Z,18.80
2019-04-01T11:07:51.402Z,18.90
2019-04-01T11:10:20.394Z,19.00
2019-04-01T11:12:49.579Z,19.10
2019-04-01T11:15:20.188Z,19.10
2019-04-01T11:17:52.310Z,19.20
2019-04-01T11:20:20.322Z,18.90
2019-04-01T11:22:49.312Z,18.90
2019-04-01T11:25:18.306Z,19.00
2019-04-01T11:27:47.380Z,19.00
2019-04-01T11:30:17.632Z,19.10
2019-04-01T11:32:46.754Z,19.10
2019-04-01T11:35:16.258Z,19.00
2019-04-01T11:37:45.756Z,19.00
2019-04-01T11:40:14.853Z,19.10
2019-04-01T11:42:43.920Z,19.10
2019-04-01T11:45:13.301Z,19.00
2019-04-01T11:47:42.449Z,19.10
2019-04-01T11:50:11.691Z,19.10
2019-04-01T11:52:40.762Z,19.30
2019-04-01T11:55:09.904Z,19.30
2019-04-01T11:57:39.786Z,19.40
2019-04-01T12:00:13.260Z,19.20
2019-04-01T12:02:42.564Z,19.30
2019-04-01T12:05:11.834Z,19.50
2019-04-01T12:07:41.042Z,19.50
2019-04-01T12:10:10.185Z,19.50
2019-04-01T12:12:39.316Z,19.50
2019-04-01T12:15:11.637Z,19.60
2019-04-01T12:17:41.650Z,19.60
2019-04-01T12:20:10.018Z,19.60
2019-04-01T12:22:40.653Z,19.50
2019-04-01T12:25:09.830Z,19.50
2019-04-01T12:27:39.024Z,19.60
2019-04-01T12:30:09.808Z,19.60
2019-04-01T12:32:40.082Z,19.60
2019-04-01T12:35:09.104Z,19.70
2019-04-01T12:37:38.318Z,19.70
2019-04-01T12:40:07.625Z,19.70
2019-04-01T12:42:36.977Z,19.70
2019-04-01T12:45:06.831Z,19.70
2019-04-01T12:47:36.258Z,19.70
2019-04-01T12:50:05.630Z,19.70
2019-04-01T12:52:34.847Z,19.70
2019-04-01T12:55:04.740Z,19.70
2019-04-01T12:57:33.780Z,19.70
2019-04-01T13:00:41.632Z,19.70
2019-04-01T13:03:10.628Z,19.60
2019-04-01T13:05:39.849Z,19.70
2019-04-01T13:08:08.985Z,19.70
2019-04-01T13:10:38.239Z,19.70
2019-04-01T13:13:07.574Z,19.70
2019-04-01T13:15:37.046Z,19.70
2019-04-01T13:18:06.415Z,19.70
2019-04-01T13:20:37.919Z,19.70
2019-04-01T13:23:07.108Z,19.80
2019-04-01T13:25:36.251Z,19.80
2019-04-01T13:28:05.795Z,19.80
2019-04-01T13:30:34.984Z,19.80
2019-04-01T13:33:04.344Z,19.70
2019-04-01T13:35:33.876Z,19.80
2019-04-01T13:38:03.010Z,19.80
2019-04-01T13:40:32.067Z,19.80
2019-04-01T13:43:04.409Z,19.80
2019-04-01T13:45:32.108Z,19.80
2019-04-01T13:48:01.611Z,19.80
2019-04-01T13:50:30.725Z,19.80
2019-04-01T13:53:00.896Z,19.80
2019-04-01T13:55:30.096Z,19.80
2019-04-01T13:57:59.156Z,19.80
2019-04-01T14:00:28.610Z,19.80
2019-04-01T14:02:57.839Z,19.80
2019-04-01T14:05:26.906Z,19.70
2019-04-01T14:07:56.370Z,19.70
2019-04-01T14:10:25.396Z,19.60
2019-04-01T14:12:54.532Z,19.50
2019-04-01T14:15:23.729Z,19.40
2019-04-01T14:17:52.899Z,19.30
2019-04-01T14:20:21.960Z,19.20
2019-04-01T14:22:53.590Z,19.10
2019-04-01T14:25:23.184Z,19.10
2019-04-01T14:27:52.317Z,19.00
2019-04-01T14:30:21.627Z,19.00
2019-04-01T14:32:50.995Z,18.90
2019-04-01T14:35:23.553Z,18.90
2019-04-01T14:37:51.416Z,18.90
2019-04-01T14:40:20.411Z,18.80
2019-04-01T14:42:49.500Z,18.90
2019-04-01T14:45:18.661Z,18.80
2019-04-01T14:47:57.058Z,18.80
2019-04-01T14:50:18.706Z,18.80
2019-04-01T14:52:47.746Z,18.80
2019-04-01T14:55:17.222Z,18.80
2019-04-01T14:57:46.275Z,18.90
2019-04-01T15:00:15.339Z,18.90
2019-04-01T15:02:44.341Z,18.80
2019-04-01T15:05:13.703Z,18.80
2019-04-01T15:07:42.850Z,18.80
2019-04-01T15:10:12.046Z,18.80
2019-04-01T15:12:41.065Z,18.80
2019-04-01T15:15:10.653Z,18.80
2019-04-01T15:17:39.686Z,18.80
2019-04-01T15:20:08.681Z,18.70
2019-04-01T15:22:37.812Z,18.70
2019-04-01T15:25:07.135Z,18.70
2019-04-01T15:27:36.304Z,18.70
2019-04-01T15:30:06.088Z,18.70
2019-04-01T15:32:35.324Z,18.70
2019-04-01T15:35:05.088Z,18.70
2019-04-01T15:40:09.813Z,18.60
2019-04-01T15:42:38.987Z,18.70
2019-04-01T15:45:08.381Z,18.60
2019-04-01T15:47:38.358Z,18.50
2019-04-01T15:50:09.309Z,18.60
2019-04-01T15:52:38.715Z,18.50
2019-04-01T15:55:07.947Z,18.60
2019-04-01T15:57:37.135Z,18.50
2019-04-01T16:00:06.396Z,18.50
2019-04-01T16:02:38.360Z,18.50
2019-04-01T16:05:07.645Z,18.50
2019-04-01T16:07:36.763Z,18.50
2019-04-01T16:10:06.107Z,18.50
2019-04-01T16:12:35.270Z,18.40
2019-04-01T16:15:05.005Z,18.40
2019-04-01T16:17:34.230Z,18.50
2019-04-01T16:20:03.529Z,18.50
2019-04-01T16:22:32.687Z,18.50
2019-04-01T16:25:01.731Z,18.40
2019-04-01T16:27:30.848Z,18.30
2019-04-01T16:30:00.269Z,18.40
2019-04-01T16:32:29.657Z,18.40
2019-04-01T16:34:58.701Z,18.30
2019-04-01T16:37:27.770Z,18.30
2019-04-01T16:39:56.933Z,18.30
2019-04-01T16:42:26.444Z,18.40
2019-04-01T16:44:55.585Z,18.40
2019-04-01T16:47:24.677Z,18.40
2019-04-01T16:49:53.808Z,18.30
2019-04-01T16:52:22.809Z,18.30
2019-04-01T16:54:58.100Z,18.30
2019-04-01T16:57:27.306Z,18.30
2019-04-01T16:59:57.135Z,18.30
2019-04-01T17:02:26.375Z,18.30
2019-04-01T17:04:55.501Z,18.30
2019-04-01T17:07:24.544Z,18.30
2019-04-01T17:09:53.900Z,18.30
2019-04-01T17:12:23.045Z,18.30
2019-04-01T17:14:52.973Z,18.30
2019-04-01T17:17:22.497Z,18.30
2019-04-01T17:19:51.525Z,18.30
2019-04-01T17:22:20.645Z,18.20
2019-04-01T17:24:49.964Z,18.20
2019-04-01T17:27:19.115Z,18.20
2019-04-01T17:29:48.210Z,18.20
2019-04-01T17:32:17.398Z,18.20
2019-04-01T17:34:46.639Z,18.20
2019-04-01T17:37:15.709Z,18.20
2019-04-01T17:39:44.975Z,18.10
2019-04-01T17:42:14.118Z,18.20
2019-04-01T17:44:43.279Z,18.20
2019-04-01T17:47:12.591Z,18.20
2019-04-01T17:49:41.719Z,18.20
2019-04-01T17:52:11.008Z,18.20
2019-04-01T17:54:40.475Z,18.10
2019-04-01T17:57:09.807Z,18.10
2019-04-01T17:59:39.090Z,18.10
2019-04-01T18:02:13.177Z,18.10
2019-04-01T18:04:42.362Z,18.10
2019-04-01T18:07:11.570Z,18.20
2019-04-01T18:09:40.675Z,18.10
2019-04-01T18:12:09.743Z,18.10
2019-04-01T18:14:39.331Z,18.10
2019-04-01T18:17:08.411Z,18.10
2019-04-01T18:19:37.540Z,18.10
2019-04-01T18:22:09.851Z,18.10
2019-04-01T18:24:37.773Z,18.00
2019-04-01T18:27:06.861Z,18.00
2019-04-01T18:29:36.043Z,18.00
2019-04-01T18:32:05.353Z,18.00
2019-04-01T18:34:34.516Z,18.00
2019-04-01T18:37:03.728Z,18.00
2019-04-01T18:39:47.182Z,18.00
2019-04-01T18:42:03.687Z,18.00
2019-04-01T18:44:32.760Z,17.90
2019-04-01T18:47:03.891Z,17.90
2019-04-01T18:49:32.618Z,17.90
2019-04-01T18:52:01.691Z,17.90
2019-04-01T18:54:30.706Z,17.90
2019-04-01T18:57:00.999Z,17.90
2019-04-01T18:59:30.909Z,17.90
2019-04-01T19:02:00.181Z,17.90
2019-04-01T19:04:29.771Z,17.90
2019-04-01T19:06:59.200Z,17.90
2019-04-01T19:09:28.207Z,17.90
2019-04-01T19:12:03.850Z,17.90
2019-04-01T19:14:28.361Z,17.80
2019-04-01T19:16:57.526Z,17.90
2019-04-01T19:19:26.599Z,17.90
2019-04-01T19:21:55.789Z,17.80
2019-04-01T19:24:24.874Z,17.80
2019-04-01T19:26:54.007Z,17.90
2019-04-01T19:29:23.206Z,17.80
2019-04-01T19:31:52.363Z,17.80
2019-04-01T19:34:21.609Z,17.80
2019-04-01T19:36:50.757Z,17.80
2019-04-01T19:39:20.054Z,17.80
2019-04-01T19:41:49.435Z,17.80
2019-04-01T19:44:18.582Z,17.80
2019-04-01T19:46:47.735Z,17.70
2019-04-01T19:49:16.875Z,17.70
2019-04-01T19:51:46.014Z,17.80
2019-04-01T19:54:15.101Z,17.70
2019-04-01T19:56:44.252Z,17.70
2019-04-01T19:59:13.633Z,17.70
2019-04-01T20:01:42.722Z,17.70
2019-04-01T20:04:11.810Z,17.70
2019-04-01T20:06:41.019Z,17.70
2019-04-01T20:09:10.313Z,17.70
2019-04-01T20:11:39.462Z,17.70
2019-04-01T20:14:08.608Z,17.60
2019-04-01T20:16:37.608Z,17.60
2019-04-01T20:19:06.685Z,17.60
2019-04-01T20:21:35.891Z,17.70
2019-04-01T20:24:05.093Z,17.60
2019-04-01T20:26:34.145Z,17.60
2019-04-01T20:29:03.309Z,17.60
2019-04-01T20:31:32.318Z,17.60
2019-04-01T20:34:04.213Z,17.60
2019-04-01T20:36:32.230Z,17.60
2019-04-01T20:39:01.574Z,17.60
2019-04-01T20:41:30.991Z,17.50
2019-04-01T20:44:00.019Z,17.60
2019-04-01T20:46:29.249Z,17.50
2019-04-01T20:48:58.248Z,17.50
2019-04-01T20:51:27.413Z,17.50
2019-04-01T20:53:56.496Z,17.60
2019-04-01T20:56:25.782Z,17.50
2019-04-01T20:58:56.016Z,17.60
2019-04-01T21:01:25.373Z,17.60
2019-04-01T21:03:54.467Z,17.50
2019-04-01T21:06:23.715Z,17.50
2019-04-01T21:08:52.794Z,17.50
2019-04-01T21:11:22.090Z,17.50
2019-04-01T21:13:51.081Z,17.60
2019-04-01T21:16:20.251Z,17.50
2019-04-01T21:18:49.884Z,17.50
2019-04-01T21:21:19.117Z,17.50
2019-04-01T21:23:48.108Z,17.50
2019-04-01T21:26:17.238Z,17.50
2019-04-01T21:28:46.698Z,17.50
2019-04-01T21:31:16.352Z,17.50
2019-04-01T21:33:46.438Z,17.50
2019-04-01T21:36:16.102Z,17.50
2019-04-01T21:38:45.177Z,17.50
2019-04-01T21:41:14.296Z,17.50
2019-04-01T21:43:43.299Z,17.40
2019-04-01T21:46:13.203Z,17.40
2019-04-01T21:48:43.549Z,17.40
2019-04-01T21:51:12.534Z,17.40
2019-04-01T21:53:41.624Z,17.50
2019-04-01T21:56:10.774Z,17.40
2019-04-01T21:58:39.826Z,17.40
2019-04-01T22:01:09.498Z,17.40
2019-04-01T22:03:38.609Z,17.40
2019-04-01T22:06:07.791Z,17.40
2019-04-01T22:08:36.932Z,17.40
2019-04-01T22:11:05.993Z,17.40
2019-04-01T22:13:35.284Z,17.40
2019-04-01T22:16:04.354Z,17.40
2019-04-01T22:18:33.425Z,17.30
2019-04-01T22:21:02.476Z,17.40
2019-04-01T22:23:31.542Z,17.40
2019-04-01T22:26:00.797Z,17.40
2019-04-01T22:28:29.819Z,17.40
2019-04-01T22:30:58.875Z,17.40
2019-04-01T22:33:28.045Z,17.30
2019-04-01T22:35:57.195Z,17.30
2019-04-01T22:38:26.357Z,17.40
2019-04-01T22:40:55.429Z,17.40
2019-04-01T22:43:25.411Z,17.30
2019-04-01T22:45:57.012Z,17.40
2019-04-01T22:48:26.501Z,17.30
2019-04-01T22:50:57.669Z,17.30
2019-04-01T22:53:26.371Z,17.30
2019-04-01T22:55:56.353Z,17.20
2019-04-01T22:58:26.359Z,17.30
2019-04-01T23:00:55.575Z,17.20
2019-04-01T23:03:24.635Z,17.20
2019-04-01T23:05:55.623Z,17.30
2019-04-01T23:08:24.566Z,17.30
2019-04-01T23:10:53.724Z,17.30
2019-04-01T23:13:22.842Z,17.20
2019-04-01T23:15:52.054Z,17.20
2019-04-01T23:18:21.069Z,17.20
2019-04-01T23:20:50.201Z,17.20
2019-04-01T23:23:19.333Z,17.20
2019-04-01T23:25:48.371Z,17.20
2019-04-01T23:28:17.432Z,17.30
2019-04-01T23:30:46.677Z,17.20
2019-04-01T23:33:16.325Z,17.30
2019-04-01T23:35:45.766Z,17.20
2019-04-01T23:38:14.822Z,17.20
2019-04-01T23:40:43.976Z,17.20
2019-04-01T23:43:13.187Z,17.20
2019-04-01T23:45:42.412Z,17.20
2019-04-01T23:48:11.637Z,17.20
2019-04-01T23:50:41.121Z,17.20
2019-04-01T23:53:10.274Z,17.20
2019-04-01T23:55:39.488Z,17.20
2019-04-01T23:58:08.476Z,17.20
